createdAt,value
2023-03-22T00:00:18.197Z,12382.3076
2023-03-22T00:01:19.606Z,12308.2305
2023-03-22T00:02:21.054Z,12656.3848
2023-03-22T00:03:22.510Z,12872.3076
2023-03-22T00:04:23.861Z,12932.7695
2023-03-22T00:05:25.289Z,13106.6152
2023-03-22T00:06:26.724Z,13411.6924
2023-03-22T00:07:28.153Z,13210.3848
2023-03-22T00:08:29.558Z,12954.3848
2023-03-22T00:09:30.974Z,12828.9229
2023-03-22T00:10:32.398Z,12757.8457
2023-03-22T00:11:33.806Z,12782.0771
2023-03-22T00:12:35.254Z,12749.0771
2023-03-22T00:13:36.681Z,12986.8457
2023-03-22T00:14:38.106Z,13318.4619
2023-03-22T00:15:39.560Z,14083.4619
2023-03-22T00:16:40.934Z,14281.6152
2023-03-22T00:17:42.344Z,14117.3076
2023-03-22T00:18:43.767Z,14334.5381
2023-03-22T00:19:45.202Z,14667.1543
2023-03-22T00:20:46.618Z,14866.3076
2023-03-22T00:21:48.034Z,14723.0771
2023-03-22T00:22:49.460Z,14578.6924
2023-03-22T00:23:50.886Z,14521.7695
2023-03-22T00:24:52.322Z,14570.4619
2023-03-22T00:25:53.718Z,14611.6152
2023-03-22T00:26:55.156Z,14621.5381
2023-03-22T00:27:56.576Z,14675.0000
2023-03-22T00:28:58.016Z,14706.6924
2023-03-22T00:29:59.547Z,14557.0000
2023-03-22T00:31:00.948Z,14548.7695
2023-03-22T00:32:02.291Z,14521.8457
2023-03-22T00:33:03.726Z,14615.0771
2023-03-22T00:34:05.132Z,15523.2305
2023-03-22T00:35:06.574Z,16411.8457
2023-03-22T00:36:07.988Z,16004.3076
2023-03-22T00:37:09.432Z,15385.2305
2023-03-22T00:38:10.841Z,15007.0771
2023-03-22T00:39:12.263Z,14888.0000
2023-03-22T00:40:13.676Z,14923.8457
2023-03-22T00:41:15.115Z,15073.5381
2023-03-22T00:42:16.528Z,15023.4619
2023-03-22T00:43:17.966Z,15037.6924
2023-03-22T00:44:19.377Z,15112.1543
2023-03-22T00:45:20.823Z,15048.1543
2023-03-22T00:46:22.320Z,14905.0000
2023-03-22T00:47:23.667Z,14809.9229
2023-03-22T00:48:25.111Z,14885.0771
2023-03-22T00:49:26.514Z,14826.8457
2023-03-22T00:50:27.926Z,14732.4619
2023-03-22T00:51:29.364Z,14809.8457
2023-03-22T00:52:30.767Z,15137.9229
2023-03-22T00:53:32.195Z,15291.3076
2023-03-22T00:54:33.619Z,15166.2305
2023-03-22T00:55:35.051Z,15031.3076
2023-03-22T00:56:36.488Z,15226.1543
2023-03-22T00:57:37.952Z,15673.9229
2023-03-22T00:58:39.317Z,15895.8457
2023-03-22T00:59:40.757Z,15875.2305
2023-03-22T01:00:42.518Z,15860.5381
2023-03-22T01:01:43.602Z,15559.0771
2023-03-22T01:02:45.038Z,15377.6152
2023-03-22T01:03:46.489Z,15350.5381
2023-03-22T01:04:47.887Z,15268.2305
2023-03-22T01:05:49.409Z,15332.9229
2023-03-22T01:06:50.820Z,15364.4619
2023-03-22T01:07:52.239Z,15345.2305
2023-03-22T01:08:53.672Z,15423.8457
2023-03-22T01:09:55.099Z,15338.7695
2023-03-22T01:10:56.521Z,15301.0771
2023-03-22T01:11:57.928Z,15134.4619
2023-03-22T01:12:59.360Z,15155.1543
2023-03-22T01:14:00.794Z,15108.0771
2023-03-22T01:15:02.242Z,15109.1543
2023-03-22T01:16:03.661Z,15068.1543
2023-03-22T01:17:05.077Z,15044.2305
2023-03-22T01:18:06.508Z,15052.3076
2023-03-22T01:19:07.918Z,15136.8457
2023-03-22T01:20:09.355Z,15088.1543
2023-03-22T01:21:10.766Z,14951.8457
2023-03-22T01:22:12.195Z,14968.8457
2023-03-22T01:23:13.631Z,14956.5381
2023-03-22T01:24:15.039Z,14970.2305
2023-03-22T01:25:16.448Z,14929.0771
2023-03-22T01:26:17.903Z,14899.6152
2023-03-22T01:27:19.306Z,15236.0000
2023-03-22T01:28:20.761Z,15553.6924
2023-03-22T01:29:22.161Z,15671.5381
2023-03-22T01:30:23.607Z,15545.4619
2023-03-22T01:31:25.007Z,15441.5381
2023-03-22T01:32:26.443Z,15304.0771
2023-03-22T01:33:27.873Z,15168.0771
2023-03-22T01:34:29.301Z,15234.3848
2023-03-22T01:35:30.781Z,15335.8457
2023-03-22T01:36:32.158Z,15349.9229
2023-03-22T01:37:33.593Z,15303.0000
2023-03-22T01:38:35.041Z,15233.6924
2023-03-22T01:39:36.441Z,15137.4619
2023-03-22T01:40:38.319Z,15422.7695
2023-03-22T01:41:39.289Z,15731.4619
2023-03-22T01:42:40.722Z,15891.0000
2023-03-22T01:43:42.196Z,15776.7695
2023-03-22T01:44:43.579Z,15662.3076
2023-03-22T01:45:45.003Z,15531.3076
2023-03-22T01:46:46.438Z,15443.3848
2023-03-22T01:47:47.846Z,15420.6152
2023-03-22T01:48:49.327Z,15588.3848
2023-03-22T01:49:50.705Z,16031.9229
2023-03-22T01:50:52.139Z,16020.2305
2023-03-22T01:51:53.557Z,16077.1543
2023-03-22T01:52:54.988Z,15720.8457
2023-03-22T01:53:56.423Z,15570.6152
2023-03-22T01:54:57.835Z,15595.8457
2023-03-22T01:55:59.260Z,15520.1543
2023-03-22T01:57:00.697Z,15522.0771
2023-03-22T01:58:02.101Z,15533.0771
2023-03-22T01:59:03.537Z,15493.7695
2023-03-22T02:00:04.945Z,15436.3076
2023-03-22T02:01:06.469Z,15435.0000
2023-03-22T02:02:07.797Z,15363.9229
2023-03-22T02:03:09.220Z,15290.7695
2023-03-22T02:04:10.656Z,15331.2305
2023-03-22T02:05:12.090Z,15272.3848
2023-03-22T02:06:13.515Z,15228.4619
2023-03-22T02:07:14.916Z,15283.0771
2023-03-22T02:08:16.345Z,15179.1543
2023-03-22T02:09:17.783Z,15061.8457
2023-03-22T02:10:19.201Z,15083.0000
2023-03-22T02:11:20.648Z,14998.9229
2023-03-22T02:12:22.055Z,14997.8457
2023-03-22T02:13:23.504Z,15014.1543
2023-03-22T02:14:27.191Z,15032.8457
2023-03-22T02:15:26.311Z,15449.0771
2023-03-22T02:16:27.752Z,15517.2305
2023-03-22T02:17:29.174Z,15355.3848
2023-03-22T02:18:30.568Z,15124.5381
2023-03-22T02:19:31.986Z,15095.8457
2023-03-22T02:20:33.393Z,15016.5381
2023-03-22T02:21:34.812Z,14885.0771
2023-03-22T02:22:36.210Z,14947.2305
2023-03-22T02:23:37.682Z,15027.6924
2023-03-22T02:24:39.073Z,14994.9229
2023-03-22T02:25:40.501Z,14969.0000
2023-03-22T02:26:41.913Z,14937.3076
2023-03-22T02:27:43.341Z,14913.1543
2023-03-22T02:28:44.828Z,14807.0771
2023-03-22T02:29:46.194Z,14800.9229
2023-03-22T02:30:47.606Z,14835.0771
2023-03-22T02:31:49.047Z,14740.7695
2023-03-22T02:32:50.437Z,14803.3076
2023-03-22T02:33:51.871Z,14716.6924
2023-03-22T02:34:53.274Z,14753.4619
2023-03-22T02:35:54.716Z,14741.8457
2023-03-22T02:36:56.124Z,14768.7695
2023-03-22T02:37:57.579Z,14714.2305
2023-03-22T02:38:58.961Z,14619.7695
2023-03-22T02:40:00.374Z,14530.1543
2023-03-22T02:41:01.797Z,14616.3076
2023-03-22T02:42:03.242Z,14505.8457
2023-03-22T02:43:04.632Z,14479.4619
2023-03-22T02:44:06.081Z,14476.0000
2023-03-22T02:45:07.472Z,14492.3848
2023-03-22T02:46:09.020Z,14510.0771
2023-03-22T02:47:10.318Z,14340.4619
2023-03-22T02:48:11.805Z,14358.0000
2023-03-22T02:49:13.193Z,14559.3848
2023-03-22T02:50:14.588Z,14797.1543
2023-03-22T02:51:15.996Z,14965.5381
2023-03-22T02:52:17.437Z,14867.3848
2023-03-22T02:53:18.849Z,14612.6924
2023-03-22T02:54:20.307Z,14474.7695
2023-03-22T02:55:21.675Z,14380.7695
2023-03-22T02:56:23.136Z,14415.5381
2023-03-22T02:57:24.528Z,14407.3848
2023-03-22T02:58:25.964Z,14464.2305
2023-03-22T02:59:27.373Z,14423.8457
2023-03-22T03:00:28.844Z,14334.5381
2023-03-22T03:01:30.295Z,14356.1543
2023-03-22T03:02:31.684Z,14216.4619
2023-03-22T03:03:33.071Z,14173.0771
2023-03-22T03:04:34.507Z,14177.0771
2023-03-22T03:05:35.906Z,14191.0771
2023-03-22T03:06:37.347Z,14183.1543
2023-03-22T03:07:38.774Z,14089.7695
2023-03-22T03:08:40.188Z,14091.6924
2023-03-22T03:09:41.623Z,14084.0000
2023-03-22T03:10:43.049Z,14026.3076
2023-03-22T03:11:44.472Z,14113.6924
2023-03-22T03:12:45.891Z,13940.6152
2023-03-22T03:13:47.307Z,13867.3076
2023-03-22T03:14:48.741Z,13937.7695
2023-03-22T03:15:50.155Z,13887.8457
2023-03-22T03:16:51.591Z,13815.6152
2023-03-22T03:17:52.999Z,13863.0771
2023-03-22T03:18:54.413Z,13832.6924
2023-03-22T03:19:55.830Z,13792.8457
2023-03-22T03:20:57.269Z,13731.2305
2023-03-22T03:21:58.680Z,13756.3848
2023-03-22T03:23:00.112Z,13603.7695
2023-03-22T03:24:01.544Z,13694.1543
2023-03-22T03:25:02.938Z,13698.2305
2023-03-22T03:26:04.352Z,13649.0000
2023-03-22T03:27:05.775Z,13583.6152
2023-03-22T03:28:07.238Z,13586.0771
2023-03-22T03:29:08.627Z,13532.0771
2023-03-22T03:30:10.079Z,13487.5381
2023-03-22T03:31:11.544Z,13435.3076
2023-03-22T03:32:12.905Z,13431.7695
2023-03-22T03:33:14.421Z,13454.5381
2023-03-22T03:34:15.757Z,13503.8457
2023-03-22T03:35:17.203Z,13342.5381
2023-03-22T03:36:18.596Z,13375.9229
2023-03-22T03:37:20.015Z,13353.6152
2023-03-22T03:38:21.442Z,13326.1543
2023-03-22T03:39:22.845Z,13323.2305
2023-03-22T03:40:24.280Z,13272.0000
2023-03-22T03:41:25.697Z,13349.0771
2023-03-22T03:42:27.121Z,13293.2305
2023-03-22T03:43:28.554Z,13289.2305
2023-03-22T03:44:29.988Z,13235.0771
2023-03-22T03:45:31.405Z,13163.5381
2023-03-22T03:46:32.829Z,13079.4619
2023-03-22T03:47:34.248Z,13080.0771
2023-03-22T03:48:35.687Z,13083.0771
2023-03-22T03:49:37.091Z,13072.0771
2023-03-22T03:50:38.868Z,13067.4619
2023-03-22T03:51:39.916Z,13050.1543
2023-03-22T03:52:41.376Z,13014.3848
2023-03-22T03:53:42.767Z,13014.3848
2023-03-22T03:54:44.204Z,13028.4619
2023-03-22T03:55:45.610Z,13049.0771
2023-03-22T03:56:47.033Z,12894.6152
2023-03-22T03:57:48.453Z,12885.8457
2023-03-22T03:58:49.876Z,12910.9229
2023-03-22T03:59:51.316Z,12882.8457
2023-03-22T04:00:52.751Z,12884.6924
2023-03-22T04:01:54.238Z,12828.3076
2023-03-22T04:02:55.576Z,12772.6152
2023-03-22T04:03:57.017Z,12745.5381
2023-03-22T04:04:58.431Z,12680.4619
2023-03-22T04:05:59.971Z,12675.1543
2023-03-22T04:07:01.273Z,12701.0000
2023-03-22T04:08:02.691Z,12601.2305
2023-03-22T04:09:04.138Z,12685.0771
2023-03-22T04:10:05.570Z,12580.0771
2023-03-22T04:11:06.976Z,12576.0000
2023-03-22T04:12:08.403Z,12566.0000
2023-03-22T04:13:09.794Z,12478.6152
2023-03-22T04:14:11.209Z,12325.8457
2023-03-22T04:15:12.638Z,12386.2305
2023-03-22T04:16:14.114Z,12320.0771
2023-03-22T04:17:15.485Z,12375.7695
2023-03-22T04:18:16.896Z,12381.5381
2023-03-22T04:19:18.317Z,12279.0000
2023-03-22T04:20:19.753Z,12271.8457
2023-03-22T04:21:21.212Z,12230.1543
2023-03-22T04:22:22.587Z,12164.3076
2023-03-22T04:23:24.033Z,12092.3076
2023-03-22T04:24:25.476Z,12079.3848
2023-03-22T04:25:26.859Z,12010.6152
2023-03-22T04:26:28.289Z,12045.3076
2023-03-22T04:27:29.714Z,11959.0771
2023-03-22T04:28:31.119Z,11935.5381
2023-03-22T04:29:32.546Z,11941.4619
2023-03-22T04:30:33.970Z,11906.9229
2023-03-22T04:31:35.395Z,12214.9229
2023-03-22T04:32:36.819Z,12815.3848
2023-03-22T04:33:38.251Z,12605.7695
2023-03-22T04:34:39.679Z,11780.0771
2023-03-22T04:35:41.154Z,11233.3848
2023-03-22T04:36:42.526Z,11069.3076
2023-03-22T04:37:43.949Z,10351.3848
2023-03-22T04:38:45.367Z,10171.1543
2023-03-22T04:39:46.801Z,9875.9229
2023-03-22T04:40:48.215Z,9274.3076
2023-03-22T04:41:49.635Z,8365.0771
2023-03-22T04:42:51.055Z,7458.0771
2023-03-22T04:43:52.520Z,6529.0000
2023-03-22T04:44:53.894Z,6908.6924
2023-03-22T04:45:55.365Z,6290.0000
2023-03-22T04:46:56.735Z,694.6923
2023-03-22T04:47:58.169Z,400.0000
2023-03-22T04:48:59.570Z,400.0000
2023-03-22T04:50:01.006Z,400.0000
2023-03-22T04:51:02.424Z,400.0000
2023-03-22T04:52:03.836Z,400.0000
2023-03-22T04:53:05.261Z,400.0000
2023-03-22T04:54:06.702Z,435.9231
2023-03-22T04:55:08.121Z,1252.1538
2023-03-22T04:56:09.531Z,1494.9231
2023-03-22T04:57:10.960Z,1504.9231
2023-03-22T04:58:12.370Z,1551.7693
2023-03-22T04:59:13.782Z,1690.6923
2023-03-22T05:00:15.288Z,1691.3077
